This is the latest recevied weather packets stored in our database for station/object SQ5DCP-1. If no packets are shown the sender has not sent any weather packets the latest 10 day(s).
| Time | Temp. | Humidity | Pressure | Rain* | Wind** | Luminosity | Snow |
|---|---|---|---|---|---|---|---|
| 1778102729 | 18.33° C | 60% | 1007.1 hPa | 0 mm | - | - | - |
| 1778101522 | 18.33° C | 60% | 1007.3 hPa | 0 mm | - | - | - |
| 1778099730 | 18.89° C | 62% | 1007.6 hPa | 0 mm | - | - | - |
| 1778099428 | 18.89° C | 63% | 1007.7 hPa | 0 mm | - | - | - |
| 1778098824 | 19.44° C | 62% | 1007.7 hPa | 0 mm | - | - | - |
| 1778098522 | 19.44° C | 61% | 1007.7 hPa | 0 mm | - | - | - |
| 1778097617 | 19.44° C | 59% | 1007.5 hPa | 0 mm | - | - | - |
| 1778095848 | 20° C | - | 1000.7 hPa | 0 mm | - | - | - |
| 1778095523 | 20° C | 54% | 1007 hPa | 0 mm | - | - | - |
| 1778095222 | 20° C | 54% | 1007.1 hPa | 0 mm | - | - | - |
| 1778094920 | 20° C | 54% | 1006.9 hPa | 0 mm | - | - | - |
| 1778094618 | 20° C | 53% | 1006.9 hPa | 0 mm | - | - | - |
| 1778094038 | 20.56° C | 53% | 1006.8 hPa | 0 mm | - | - | - |
| 1778092525 | 21.11° C | 50% | 1006.7 hPa | 0 mm | - | - | - |
| 1778092223 | 21.67° C | 49% | 1006.6 hPa | 0 mm | - | - | - |
| 1778091316 | 22.22° C | 47% | 1006.5 hPa | 0 mm | - | - | - |
| 1778090732 | 22.22° C | 46% | 1006.5 hPa | 0 mm | - | - | - |
| 1778088618 | 23.33° C | 43% | 1006.3 hPa | 0 mm | - | - | - |
| 1778088317 | 23.89° C | 42% | 1006.3 hPa | 0 mm | - | - | - |
| 1778087734 | 23.89° C | 41% | 1006.2 hPa | 0 mm | - | - | - |
| 1778087130 | 24.44° C | 41% | 1006.2 hPa | 0 mm | - | - | - |
| 1778085317 | 24.44° C | 39% | 1006.1 hPa | 0 mm | - | - | - |
| 1778084130 | 25° C | 39% | 1006.1 hPa | 0 mm | - | - | - |
| 1778082922 | 25.56° C | 39% | 1006.2 hPa | 0 mm | - | - | - |
| 1778081431 | 25° C | 39% | 1006.3 hPa | 0 mm | - | - | - |
* Rain latest hour (hover to see other rain measurements)
** Current wind speed in m/s (hover to see current wind gust speed)